createdAt,value
2022-11-24T00:01:10.268Z,16.20
2022-11-24T00:03:36.911Z,13.20
2022-11-24T00:06:05.695Z,12.30
2022-11-24T00:08:32.196Z,14.63
2022-11-24T00:11:06.802Z,15.00
2022-11-24T00:13:35.063Z,16.47
2022-11-24T00:16:10.208Z,17.43
2022-11-24T00:18:37.046Z,16.70
2022-11-24T00:21:03.930Z,16.37
2022-11-24T00:23:30.636Z,20.10
2022-11-24T00:26:07.175Z,24.07
2022-11-24T00:28:35.241Z,15.83
2022-11-24T00:31:02.744Z,14.57
2022-11-24T00:33:29.407Z,15.70
2022-11-24T00:35:57.997Z,13.17
2022-11-24T00:38:24.903Z,16.63
2022-11-24T00:40:52.307Z,14.13
2022-11-24T00:43:19.746Z,11.47
2022-11-24T00:45:46.481Z,19.60
2022-11-24T00:48:13.426Z,19.87
2022-11-24T00:50:40.108Z,18.30
2022-11-24T00:53:06.754Z,13.13
2022-11-24T00:55:33.762Z,16.57
2022-11-24T00:58:00.259Z,12.10
2022-11-24T01:00:27.020Z,18.43
2022-11-24T01:02:54.054Z,10.53
2022-11-24T01:05:21.086Z,16.00
2022-11-24T01:07:48.005Z,16.77
2022-11-24T01:10:14.754Z,13.33
2022-11-24T01:12:41.325Z,16.87
2022-11-24T01:15:08.310Z,19.37
2022-11-24T01:17:34.823Z,18.93
2022-11-24T01:20:01.713Z,9.63
2022-11-24T01:22:28.414Z,18.83
2022-11-24T01:24:54.943Z,13.67
2022-11-24T01:27:21.485Z,15.27
2022-11-24T01:29:47.969Z,20.67
2022-11-24T01:32:14.884Z,15.33
2022-11-24T01:34:41.387Z,11.93
2022-11-24T01:37:07.872Z,17.03
2022-11-24T01:39:35.030Z,17.20
2022-11-24T01:42:01.926Z,14.63
2022-11-24T01:44:30.619Z,14.63
2022-11-24T01:47:12.670Z,15.17
2022-11-24T01:49:47.547Z,17.70
2022-11-24T01:52:18.615Z,15.43
2022-11-24T01:54:53.561Z,12.77
2022-11-24T01:57:31.366Z,11.60
2022-11-24T02:00:04.810Z,13.13
2022-11-24T02:02:31.480Z,20.20
2022-11-24T02:05:03.212Z,12.57
2022-11-24T02:07:31.131Z,16.43
2022-11-24T02:10:09.470Z,15.27
2022-11-24T02:12:37.964Z,16.60
2022-11-24T02:15:04.963Z,18.93
2022-11-24T02:17:31.472Z,13.47
2022-11-24T02:20:02.053Z,18.77
2022-11-24T02:23:13.641Z,14.10
2022-11-24T02:26:17.682Z,17.00
2022-11-24T02:28:44.698Z,13.50
2022-11-24T02:31:11.746Z,12.50
2022-11-24T02:33:38.556Z,17.17
2022-11-24T02:36:05.284Z,15.07
2022-11-24T02:38:34.224Z,13.20
2022-11-24T02:41:05.915Z,17.50
2022-11-24T02:43:47.043Z,13.83
2022-11-24T02:46:14.070Z,17.83
2022-11-24T02:48:40.653Z,19.37
2022-11-24T02:51:07.157Z,15.30
2022-11-24T02:53:34.111Z,19.47
2022-11-24T02:56:00.670Z,14.27
2022-11-24T02:58:27.346Z,19.10
2022-11-24T03:00:54.513Z,16.43
2022-11-24T03:03:21.741Z,17.33
2022-11-24T03:05:48.310Z,16.97
2022-11-24T03:08:14.882Z,20.63
2022-11-24T03:10:41.366Z,16.77
2022-11-24T03:13:08.704Z,19.23
2022-11-24T03:15:35.522Z,14.40
2022-11-24T03:18:02.088Z,19.87
2022-11-24T03:20:29.296Z,12.37
2022-11-24T03:22:56.760Z,22.00
2022-11-24T03:25:23.329Z,15.00
2022-11-24T03:27:50.068Z,18.90
2022-11-24T03:30:16.827Z,13.90
2022-11-24T03:32:43.397Z,17.37
2022-11-24T03:35:10.001Z,21.20
2022-11-24T03:37:37.357Z,20.27
2022-11-24T03:40:04.326Z,13.53
2022-11-24T03:42:30.848Z,20.13
2022-11-24T03:44:57.383Z,16.77
2022-11-24T03:47:23.894Z,21.07
2022-11-24T03:49:50.449Z,14.47
2022-11-24T03:52:16.949Z,23.83
2022-11-24T03:54:43.525Z,16.83
2022-11-24T03:57:10.201Z,27.33
2022-11-24T03:59:36.707Z,19.93
2022-11-24T04:02:03.378Z,18.27
2022-11-24T04:04:30.161Z,16.83
2022-11-24T04:06:56.853Z,18.70
2022-11-24T04:09:23.361Z,24.17
2022-11-24T04:12:08.555Z,17.23
2022-11-24T04:14:35.391Z,19.83
2022-11-24T04:17:04.197Z,14.23
2022-11-24T04:19:30.966Z,15.83
2022-11-24T04:21:57.581Z,23.40
2022-11-24T04:24:24.130Z,19.23
2022-11-24T04:26:50.576Z,24.33
2022-11-24T04:29:17.164Z,24.67
2022-11-24T04:31:43.703Z,24.63
2022-11-24T04:34:11.411Z,21.53
2022-11-24T04:36:37.893Z,17.50
2022-11-24T04:39:24.331Z,18.83
2022-11-24T04:41:50.781Z,19.70
2022-11-24T04:44:17.326Z,26.50
2022-11-24T04:46:43.896Z,20.83
2022-11-24T04:49:11.842Z,19.83
2022-11-24T04:51:39.391Z,18.53
2022-11-24T04:54:08.203Z,19.73
2022-11-24T04:56:34.694Z,16.67
2022-11-24T04:59:06.652Z,21.83
2022-11-24T05:01:35.316Z,23.83
2022-11-24T05:04:01.930Z,28.73
2022-11-24T05:06:28.482Z,19.07
2022-11-24T05:08:55.200Z,22.43
2022-11-24T05:11:21.790Z,18.30
2022-11-24T05:13:48.285Z,18.90
2022-11-24T05:16:15.009Z,24.37
2022-11-24T05:18:41.679Z,26.47
2022-11-24T05:21:08.259Z,20.93
2022-11-24T05:23:34.832Z,27.30
2022-11-24T05:26:02.085Z,19.13
2022-11-24T05:28:29.050Z,24.73
2022-11-24T05:30:59.564Z,19.23
2022-11-24T05:33:28.609Z,23.80
2022-11-24T05:35:55.158Z,20.13
2022-11-24T05:38:22.981Z,24.60
2022-11-24T05:40:49.534Z,26.23
2022-11-24T05:43:17.188Z,15.80
2022-11-24T05:45:44.861Z,26.57
2022-11-24T05:48:14.246Z,31.87
2022-11-24T05:50:41.127Z,27.20
2022-11-24T05:53:13.094Z,24.10
2022-11-24T05:55:40.663Z,25.73
2022-11-24T05:58:08.788Z,26.47
2022-11-24T06:00:36.353Z,26.13
2022-11-24T06:03:03.619Z,18.80
2022-11-24T06:05:30.618Z,19.03
2022-11-24T06:07:59.377Z,17.70
2022-11-24T06:10:26.167Z,21.83
2022-11-24T06:12:53.257Z,19.73
2022-11-24T06:15:19.789Z,30.67
2022-11-24T06:17:53.685Z,20.63
2022-11-24T06:20:20.275Z,24.87
2022-11-24T06:22:46.772Z,20.80
2022-11-24T06:25:13.226Z,25.10
2022-11-24T06:27:39.774Z,24.30
2022-11-24T06:30:06.775Z,15.93
2022-11-24T06:32:33.307Z,18.03
2022-11-24T06:34:59.787Z,18.93
2022-11-24T06:37:26.285Z,19.33
2022-11-24T06:39:52.751Z,14.60
2022-11-24T06:42:19.366Z,17.87
2022-11-24T06:44:47.490Z,19.30
2022-11-24T06:47:15.147Z,17.30
2022-11-24T06:49:41.614Z,21.67
2022-11-24T06:52:08.205Z,16.70
2022-11-24T06:54:34.867Z,15.67
2022-11-24T06:57:01.534Z,22.70
2022-11-24T06:59:28.261Z,15.70
2022-11-24T07:01:54.758Z,13.13
2022-11-24T07:04:21.300Z,22.60
2022-11-24T07:06:48.104Z,15.77
2022-11-24T07:09:15.017Z,14.40
2022-11-24T07:11:42.053Z,13.90
2022-11-24T07:14:09.031Z,17.03
2022-11-24T07:16:35.794Z,16.03
2022-11-24T07:19:02.444Z,8.97
2022-11-24T07:21:30.540Z,10.33
2022-11-24T07:23:58.085Z,9.10
2022-11-24T07:26:25.338Z,12.33
2022-11-24T07:28:51.863Z,12.40
2022-11-24T07:31:20.804Z,7.37
2022-11-24T07:33:51.203Z,11.30
2022-11-24T07:36:17.677Z,11.53
2022-11-24T07:38:44.673Z,8.13
2022-11-24T07:41:13.048Z,9.17
2022-11-24T07:43:39.731Z,9.43
2022-11-24T07:46:08.731Z,6.03
2022-11-24T07:48:35.391Z,6.87
2022-11-24T07:51:02.846Z,6.13
2022-11-24T07:53:29.513Z,7.97
2022-11-24T07:56:00.450Z,7.00
2022-11-24T07:58:32.604Z,7.57
2022-11-24T08:01:00.508Z,4.67
2022-11-24T08:03:27.117Z,6.07
2022-11-24T08:08:45.397Z,5.20
2022-11-24T08:11:14.846Z,5.90
2022-11-24T08:13:41.839Z,7.30
2022-11-24T08:16:15.137Z,7.23
2022-11-24T08:18:42.436Z,6.77
2022-11-24T08:21:13.411Z,7.37
2022-11-24T08:23:40.496Z,6.10
2022-11-24T08:26:09.294Z,9.20
2022-11-24T08:28:36.719Z,7.90
2022-11-24T08:31:05.558Z,6.63
2022-11-24T08:33:32.588Z,7.97
2022-11-24T08:36:14.012Z,6.63
2022-11-24T08:38:41.261Z,6.80
2022-11-24T08:41:11.543Z,6.07
2022-11-24T08:43:38.393Z,4.83
2022-11-24T08:46:07.373Z,7.60
2022-11-24T08:48:34.594Z,5.93
2022-11-24T08:51:09.172Z,8.63
2022-11-24T08:53:35.764Z,7.73
2022-11-24T08:56:03.721Z,9.43
2022-11-24T08:58:30.919Z,4.57
2022-11-24T09:01:04.975Z,7.13
2022-11-24T09:03:31.991Z,10.53
2022-11-24T09:05:58.429Z,10.30
2022-11-24T09:08:24.892Z,8.90
2022-11-24T09:10:51.795Z,6.83
2022-11-24T09:13:18.273Z,9.20
2022-11-24T09:15:44.726Z,10.67
2022-11-24T09:18:11.471Z,7.03
2022-11-24T09:20:37.925Z,11.13
2022-11-24T09:23:04.475Z,12.37
2022-11-24T09:25:30.956Z,8.87
2022-11-24T09:27:58.585Z,10.83
2022-11-24T09:30:25.089Z,7.00
2022-11-24T09:32:51.570Z,11.70
2022-11-24T09:35:18.055Z,8.20
2022-11-24T09:37:45.735Z,6.77
2022-11-24T09:40:14.290Z,9.33
2022-11-24T09:42:52.080Z,14.87
2022-11-24T09:46:03.843Z,11.27
2022-11-24T09:48:42.808Z,12.10
2022-11-24T09:51:13.556Z,6.60
2022-11-24T09:53:48.268Z,8.40
2022-11-24T09:56:23.476Z,10.87
2022-11-24T09:58:52.006Z,11.90
2022-11-24T10:01:28.874Z,11.07
2022-11-24T10:03:58.614Z,9.70
2022-11-24T10:06:38.024Z,10.67
2022-11-24T10:09:13.584Z,10.20
2022-11-24T10:11:43.098Z,9.93
2022-11-24T10:14:12.666Z,13.60
2022-11-24T10:17:01.897Z,16.97
2022-11-24T10:19:39.971Z,14.03
2022-11-24T10:22:28.302Z,11.13
2022-11-24T10:25:17.987Z,12.60
2022-11-24T10:27:49.279Z,10.50
2022-11-24T10:30:19.737Z,13.23
2022-11-24T10:33:08.237Z,11.17
2022-11-24T10:36:04.085Z,11.07
2022-11-24T10:38:36.158Z,11.37
2022-11-24T10:41:13.132Z,10.97
2022-11-24T10:43:45.357Z,11.27
2022-11-24T10:46:25.643Z,13.83
2022-11-24T10:48:58.546Z,8.90
2022-11-24T10:51:37.703Z,13.47
2022-11-24T10:54:16.775Z,11.93
2022-11-24T10:56:45.314Z,17.40
2022-11-24T10:59:25.438Z,11.53
2022-11-24T11:01:52.899Z,15.13
2022-11-24T11:04:34.326Z,9.43
2022-11-24T11:07:08.813Z,15.13
2022-11-24T11:09:35.496Z,10.90
2022-11-24T11:12:42.119Z,12.50
2022-11-24T11:15:17.335Z,6.97
2022-11-24T11:17:44.867Z,18.13
2022-11-24T11:20:37.567Z,17.27
2022-11-24T11:23:16.563Z,12.03
2022-11-24T11:25:43.820Z,13.83
2022-11-24T11:28:22.666Z,11.80
2022-11-24T11:31:17.871Z,15.47
2022-11-24T11:34:04.311Z,12.13
2022-11-24T11:36:33.163Z,12.63
2022-11-24T11:38:59.916Z,10.90
2022-11-24T11:41:33.543Z,20.23
2022-11-24T11:44:21.321Z,15.07
2022-11-24T11:46:48.126Z,14.17
2022-11-24T11:49:14.789Z,21.50
2022-11-24T11:52:02.588Z,12.17
2022-11-24T11:55:08.399Z,14.10
2022-11-24T11:57:46.722Z,18.43
2022-11-24T12:00:18.750Z,17.40
2022-11-24T12:03:05.305Z,12.90
2022-11-24T12:05:50.487Z,15.00
2022-11-24T12:08:23.149Z,15.57
2022-11-24T12:11:14.630Z,14.13
2022-11-24T12:13:50.140Z,13.87
2022-11-24T12:16:47.157Z,14.60
2022-11-24T12:19:38.652Z,13.90
2022-11-24T12:22:10.812Z,12.00
2022-11-24T12:24:42.590Z,14.77
2022-11-24T12:27:25.589Z,12.43
2022-11-24T12:30:18.681Z,19.67
2022-11-24T12:32:45.115Z,12.53
2022-11-24T12:35:30.549Z,17.90
2022-11-24T12:38:21.084Z,18.13
2022-11-24T12:41:39.759Z,24.93
2022-11-24T12:44:01.014Z,20.37
2022-11-24T12:47:03.608Z,13.90
2022-11-24T12:49:55.635Z,18.10
2022-11-24T12:52:35.705Z,15.70
2022-11-24T12:55:03.388Z,16.20
2022-11-24T12:57:51.526Z,17.40
2022-11-24T13:00:33.156Z,17.63
2022-11-24T13:03:10.923Z,14.10
2022-11-24T13:06:03.352Z,14.90
2022-11-24T13:08:31.660Z,19.20
2022-11-24T13:11:23.157Z,17.87
2022-11-24T13:14:29.316Z,16.20
2022-11-24T13:17:31.201Z,18.27
2022-11-24T13:20:20.912Z,13.40
2022-11-24T13:22:56.979Z,18.63
2022-11-24T13:25:29.703Z,16.10
2022-11-24T13:28:01.120Z,18.37
2022-11-24T13:30:33.495Z,15.80
2022-11-24T13:33:33.414Z,14.37
2022-11-24T13:36:02.643Z,14.53
2022-11-24T13:38:53.104Z,14.33
2022-11-24T13:41:31.801Z,16.17
2022-11-24T13:44:13.683Z,13.33
2022-11-24T13:47:05.819Z,16.90
2022-11-24T13:49:46.398Z,12.83
2022-11-24T13:52:34.680Z,16.13
2022-11-24T13:55:06.061Z,16.17
2022-11-24T13:57:40.753Z,17.40
2022-11-24T14:00:35.084Z,18.30
2022-11-24T14:03:14.229Z,18.47
2022-11-24T14:05:48.714Z,16.87
2022-11-24T14:08:24.417Z,17.13
2022-11-24T14:10:53.304Z,17.33
2022-11-24T14:13:27.794Z,10.17
2022-11-24T14:16:03.758Z,15.30
2022-11-24T14:18:31.746Z,17.83
2022-11-24T14:21:00.416Z,12.43
2022-11-24T14:23:27.069Z,12.10
2022-11-24T14:25:53.830Z,12.83
2022-11-24T14:28:26.888Z,18.57
2022-11-24T14:31:18.349Z,14.87
2022-11-24T14:33:44.799Z,14.23
2022-11-24T14:36:16.047Z,13.27
2022-11-24T14:38:43.506Z,14.83
2022-11-24T14:41:26.204Z,12.67
2022-11-24T14:44:12.741Z,13.83
2022-11-24T14:46:39.326Z,19.10
2022-11-24T14:49:06.045Z,14.47
2022-11-24T14:51:35.684Z,14.40
2022-11-24T14:54:06.524Z,15.00
2022-11-24T14:56:36.473Z,20.23
2022-11-24T14:59:04.831Z,19.20
2022-11-24T15:01:34.266Z,21.40
2022-11-24T15:07:27.541Z,12.70
2022-11-24T15:10:00.141Z,16.07
2022-11-24T15:12:35.677Z,8.60
2022-11-24T15:15:24.250Z,16.63
2022-11-24T15:17:54.328Z,18.63
2022-11-24T15:20:27.121Z,12.20
2022-11-24T15:23:12.622Z,13.23
2022-11-24T15:25:39.302Z,14.60
2022-11-24T15:28:05.771Z,13.73
2022-11-24T15:30:35.454Z,9.73
2022-11-24T15:33:02.611Z,14.67
2022-11-24T15:35:31.201Z,15.63
2022-11-24T15:37:58.219Z,8.93
2022-11-24T15:40:24.996Z,13.53
2022-11-24T15:42:53.574Z,15.60
2022-11-24T15:45:21.857Z,13.77
2022-11-24T15:47:48.585Z,10.67
2022-11-24T15:50:15.453Z,17.37
2022-11-24T15:52:44.029Z,19.83
2022-11-24T15:55:21.757Z,13.90
2022-11-24T15:57:49.075Z,14.40
2022-11-24T16:00:23.894Z,9.27
2022-11-24T16:02:50.543Z,11.10
2022-11-24T16:05:18.353Z,19.50
2022-11-24T16:07:47.408Z,9.83
2022-11-24T16:10:24.164Z,12.97
2022-11-24T16:12:50.652Z,15.03
2022-11-24T16:15:17.217Z,13.00
2022-11-24T16:17:43.651Z,11.47
2022-11-24T16:20:10.849Z,13.10
2022-11-24T16:22:37.308Z,11.27
2022-11-24T16:25:04.359Z,10.77
2022-11-24T16:27:31.515Z,12.67
2022-11-24T16:29:58.087Z,12.33
2022-11-24T16:32:24.908Z,14.03
2022-11-24T16:34:51.389Z,15.93
2022-11-24T16:37:17.813Z,17.67
2022-11-24T16:39:49.805Z,14.23
2022-11-24T16:42:16.950Z,15.10
2022-11-24T16:44:43.461Z,11.87
2022-11-24T16:47:12.017Z,14.30
2022-11-24T16:49:39.246Z,15.43
2022-11-24T16:52:05.859Z,15.23
2022-11-24T16:54:32.544Z,14.63
2022-11-24T16:56:59.356Z,12.77
2022-11-24T16:59:26.178Z,16.80
2022-11-24T17:01:52.844Z,13.73
2022-11-24T17:04:19.403Z,12.20
2022-11-24T17:06:45.904Z,10.73
2022-11-24T17:09:12.393Z,11.53
2022-11-24T17:11:38.886Z,17.70
2022-11-24T17:14:05.922Z,15.00
2022-11-24T17:16:32.637Z,14.40
2022-11-24T17:18:59.806Z,12.97
2022-11-24T17:21:27.913Z,16.43
2022-11-24T17:23:56.272Z,12.67
2022-11-24T17:26:23.877Z,13.50
2022-11-24T17:28:50.922Z,14.93
2022-11-24T17:31:28.207Z,15.20
2022-11-24T17:33:57.358Z,17.50
2022-11-24T17:36:24.414Z,15.43
2022-11-24T17:38:51.075Z,21.13
2022-11-24T17:41:21.911Z,14.57
2022-11-24T17:43:53.029Z,13.80
2022-11-24T17:46:20.142Z,16.60
2022-11-24T17:48:46.989Z,16.87
2022-11-24T17:51:16.469Z,18.40
2022-11-24T17:53:44.313Z,21.03
2022-11-24T17:56:16.408Z,13.37
2022-11-24T17:58:43.607Z,17.83
2022-11-24T18:01:11.802Z,15.10
2022-11-24T18:03:39.659Z,13.20
2022-11-24T18:06:11.276Z,17.83
2022-11-24T18:08:39.895Z,13.23
2022-11-24T18:11:18.067Z,10.23
2022-11-24T18:14:01.407Z,13.57
2022-11-24T18:16:30.359Z,13.50
2022-11-24T18:19:08.291Z,14.83
2022-11-24T18:21:42.273Z,17.40
2022-11-24T18:24:10.392Z,14.10
2022-11-24T18:26:37.451Z,11.37
2022-11-24T18:29:04.279Z,12.77
2022-11-24T18:31:33.994Z,13.53
2022-11-24T18:34:00.828Z,15.63
2022-11-24T18:36:30.563Z,9.37
2022-11-24T18:39:00.566Z,11.70
2022-11-24T18:41:27.169Z,15.13
2022-11-24T18:43:53.952Z,10.93
2022-11-24T18:46:20.503Z,13.50
2022-11-24T18:48:47.409Z,9.50
2022-11-24T18:51:16.814Z,9.03
2022-11-24T18:53:45.039Z,12.70
2022-11-24T18:56:14.636Z,20.37
2022-11-24T18:58:41.775Z,14.07
2022-11-24T19:01:16.952Z,15.53
2022-11-24T19:03:49.419Z,17.40
2022-11-24T19:06:20.368Z,11.97
2022-11-24T19:08:48.869Z,15.80
2022-11-24T19:11:18.874Z,12.53
2022-11-24T19:13:45.391Z,11.17
2022-11-24T19:16:12.941Z,14.67
2022-11-24T19:18:39.579Z,10.97
2022-11-24T19:21:06.490Z,13.00
2022-11-24T19:23:32.957Z,12.17
2022-11-24T19:26:03.246Z,10.17
2022-11-24T19:28:30.021Z,13.07
2022-11-24T19:31:03.451Z,14.50
2022-11-24T19:33:30.509Z,12.60
2022-11-24T19:36:13.245Z,14.30
2022-11-24T19:38:41.142Z,13.60
2022-11-24T19:41:09.149Z,17.77
2022-11-24T19:43:36.070Z,12.73
2022-11-24T19:46:04.450Z,10.87
2022-11-24T19:48:40.653Z,13.03
2022-11-24T19:51:10.417Z,9.70
2022-11-24T19:53:37.958Z,10.97
2022-11-24T19:56:06.107Z,10.37
2022-11-24T19:58:32.954Z,11.53
2022-11-24T20:01:11.103Z,13.50
2022-11-24T20:03:38.924Z,6.17
2022-11-24T20:06:06.692Z,10.27
2022-11-24T20:08:35.465Z,16.80
2022-11-24T20:11:10.766Z,12.20
2022-11-24T20:13:39.207Z,14.57
2022-11-24T20:16:11.337Z,14.13
2022-11-24T20:18:42.215Z,13.80
2022-11-24T20:21:11.764Z,13.87
2022-11-24T20:23:39.235Z,13.83
2022-11-24T20:26:12.808Z,11.37
2022-11-24T20:28:40.078Z,11.23
2022-11-24T20:31:10.514Z,11.93
2022-11-24T20:33:37.298Z,9.50
2022-11-24T20:36:06.230Z,13.03
2022-11-24T20:38:34.490Z,14.53
2022-11-24T20:41:09.571Z,10.80
2022-11-24T20:43:37.077Z,13.07
2022-11-24T20:46:06.156Z,13.60
2022-11-24T20:48:34.163Z,12.87
2022-11-24T20:51:21.163Z,13.07
2022-11-24T20:53:48.942Z,10.73
2022-11-24T20:56:18.606Z,13.40
2022-11-24T20:58:45.407Z,12.47
2022-11-24T21:01:20.980Z,12.80
2022-11-24T21:03:52.646Z,10.60
2022-11-24T21:06:19.126Z,13.53
2022-11-24T21:08:45.611Z,9.27
2022-11-24T21:11:13.452Z,11.83
2022-11-24T21:13:41.992Z,16.77
2022-11-24T21:16:24.446Z,11.23
2022-11-24T21:18:54.904Z,10.63
2022-11-24T21:21:23.225Z,11.13
2022-11-24T21:23:50.454Z,12.60
2022-11-24T21:26:18.774Z,10.40
2022-11-24T21:28:47.540Z,12.57
2022-11-24T21:31:17.006Z,13.17
2022-11-24T21:33:48.025Z,10.77
2022-11-24T21:36:17.815Z,13.40
2022-11-24T21:38:44.601Z,10.77
2022-11-24T21:41:11.818Z,13.83
2022-11-24T21:43:38.694Z,9.57
2022-11-24T21:46:07.885Z,11.93
2022-11-24T21:48:35.982Z,9.03
2022-11-24T21:51:04.476Z,12.53
2022-11-24T21:53:33.284Z,13.67
2022-11-24T21:56:01.868Z,11.90
2022-11-24T21:58:28.998Z,15.10
2022-11-24T22:01:01.464Z,16.13
2022-11-24T22:03:27.991Z,9.57
2022-11-24T22:05:59.650Z,15.57
2022-11-24T22:08:27.525Z,16.93
2022-11-24T22:10:54.094Z,12.83
2022-11-24T22:13:20.655Z,10.97
2022-11-24T22:15:47.132Z,9.77
2022-11-24T22:18:13.579Z,13.60
2022-11-24T22:20:40.305Z,15.23
2022-11-24T22:23:06.790Z,9.60
2022-11-24T22:25:33.679Z,12.83
2022-11-24T22:28:00.409Z,11.77
2022-11-24T22:30:26.887Z,13.70
2022-11-24T22:32:53.644Z,14.73
2022-11-24T22:35:20.139Z,12.40
2022-11-24T22:37:46.722Z,14.87
2022-11-24T22:40:13.326Z,11.67
2022-11-24T22:42:39.771Z,12.60
2022-11-24T22:45:06.967Z,15.20
2022-11-24T22:47:33.433Z,12.70
2022-11-24T22:49:59.968Z,12.77
2022-11-24T22:52:26.736Z,13.90
2022-11-24T22:54:53.218Z,9.77
2022-11-24T22:57:19.687Z,14.03
2022-11-24T22:59:46.325Z,13.20
2022-11-24T23:02:13.210Z,8.23
2022-11-24T23:04:39.664Z,12.13
2022-11-24T23:07:06.138Z,9.47
2022-11-24T23:09:33.096Z,14.93
2022-11-24T23:11:59.787Z,13.60
2022-11-24T23:14:26.975Z,11.80
2022-11-24T23:16:54.248Z,13.30
2022-11-24T23:19:20.769Z,14.87
2022-11-24T23:21:47.287Z,16.70
2022-11-24T23:24:13.848Z,14.47
2022-11-24T23:26:41.306Z,11.10
2022-11-24T23:29:08.187Z,22.40
2022-11-24T23:31:35.578Z,8.30
2022-11-24T23:34:03.967Z,10.97
2022-11-24T23:36:31.399Z,13.47
2022-11-24T23:39:05.476Z,11.70
2022-11-24T23:41:32.646Z,15.03
2022-11-24T23:44:00.130Z,12.43
2022-11-24T23:46:28.143Z,12.77
2022-11-24T23:48:55.710Z,14.17
2022-11-24T23:51:30.976Z,9.47
2022-11-24T23:53:58.755Z,12.23
2022-11-24T23:56:29.460Z,15.73
2022-11-24T23:58:55.948Z,13.93
